sensor_id;sensor_type;location;lat;lon;timestamp;P1;durP1;ratioP1;P2;durP2;ratioP2
54428;SDS011;40337;52.978;6.310;2023-07-30T00:01:48;9.73;;;4.85;;
54428;SDS011;40337;52.978;6.310;2023-07-30T00:04:13;13.77;;;4.93;;
54428;SDS011;40337;52.978;6.310;2023-07-30T00:06:39;9.38;;;4.70;;
54428;SDS011;40337;52.978;6.310;2023-07-30T00:09:04;11.32;;;5.22;;
54428;SDS011;40337;52.978;6.310;2023-07-30T00:11:30;11.57;;;5.20;;
54428;SDS011;40337;52.978;6.310;2023-07-30T00:13:55;10.90;;;4.97;;
54428;SDS011;40337;52.978;6.310;2023-07-30T00:16:21;10.73;;;5.85;;
54428;SDS011;40337;52.978;6.310;2023-07-30T00:18:46;11.48;;;5.20;;
54428;SDS011;40337;52.978;6.310;2023-07-30T00:21:12;12.32;;;5.30;;
54428;SDS011;40337;52.978;6.310;2023-07-30T00:23:37;9.80;;;5.15;;
54428;SDS011;40337;52.978;6.310;2023-07-30T00:26:03;11.73;;;5.32;;
54428;SDS011;40337;52.978;6.310;2023-07-30T00:28:28;11.60;;;5.18;;
54428;SDS011;40337;52.978;6.310;2023-07-30T00:30:54;13.50;;;5.68;;
54428;SDS011;40337;52.978;6.310;2023-07-30T00:33:20;12.00;;;5.88;;
54428;SDS011;40337;52.978;6.310;2023-07-30T00:35:45;11.88;;;5.60;;
54428;SDS011;40337;52.978;6.310;2023-07-30T00:38:11;11.05;;;5.20;;
54428;SDS011;40337;52.978;6.310;2023-07-30T00:40:40;9.95;;;5.20;;
54428;SDS011;40337;52.978;6.310;2023-07-30T00:43:06;11.82;;;5.28;;
54428;SDS011;40337;52.978;6.310;2023-07-30T00:45:32;13.65;;;5.78;;
54428;SDS011;40337;52.978;6.310;2023-07-30T00:47:58;13.98;;;5.70;;
54428;SDS011;40337;52.978;6.310;2023-07-30T00:50:23;17.85;;;6.00;;
54428;SDS011;40337;52.978;6.310;2023-07-30T00:52:49;15.95;;;5.60;;
54428;SDS011;40337;52.978;6.310;2023-07-30T00:55:15;13.23;;;5.38;;
54428;SDS011;40337;52.978;6.310;2023-07-30T00:57:41;16.35;;;5.93;;
54428;SDS011;40337;52.978;6.310;2023-07-30T01:00:07;15.85;;;5.40;;
54428;SDS011;40337;52.978;6.310;2023-07-30T01:02:35;15.00;;;5.70;;
54428;SDS011;40337;52.978;6.310;2023-07-30T01:05:01;13.20;;;5.63;;
54428;SDS011;40337;52.978;6.310;2023-07-30T01:07:28;19.95;;;5.53;;
54428;SDS011;40337;52.978;6.310;2023-07-30T01:09:53;14.57;;;5.32;;
54428;SDS011;40337;52.978;6.310;2023-07-30T01:12:19;13.80;;;5.50;;
54428;SDS011;40337;52.978;6.310;2023-07-30T01:14:45;14.98;;;5.55;;
54428;SDS011;40337;52.978;6.310;2023-07-30T01:17:12;17.05;;;5.90;;
54428;SDS011;40337;52.978;6.310;2023-07-30T01:19:38;19.92;;;6.10;;
54428;SDS011;40337;52.978;6.310;2023-07-30T01:22:04;17.88;;;5.93;;
54428;SDS011;40337;52.978;6.310;2023-07-30T01:24:30;18.83;;;5.85;;
54428;SDS011;40337;52.978;6.310;2023-07-30T01:26:56;17.98;;;5.85;;
54428;SDS011;40337;52.978;6.310;2023-07-30T01:29:38;15.55;;;5.82;;
54428;SDS011;40337;52.978;6.310;2023-07-30T01:32:07;17.27;;;5.95;;
54428;SDS011;40337;52.978;6.310;2023-07-30T01:34:35;15.68;;;5.90;;
54428;SDS011;40337;52.978;6.310;2023-07-30T01:37:02;16.23;;;5.30;;
54428;SDS011;40337;52.978;6.310;2023-07-30T01:39:30;18.25;;;5.40;;
54428;SDS011;40337;52.978;6.310;2023-07-30T01:41:58;15.45;;;5.88;;
54428;SDS011;40337;52.978;6.310;2023-07-30T01:44:23;14.60;;;5.38;;
54428;SDS011;40337;52.978;6.310;2023-07-30T01:46:49;15.30;;;5.35;;
54428;SDS011;40337;52.978;6.310;2023-07-30T01:49:14;18.30;;;5.38;;
54428;SDS011;40337;52.978;6.310;2023-07-30T01:51:40;18.55;;;5.72;;
54428;SDS011;40337;52.978;6.310;2023-07-30T01:54:05;21.52;;;5.82;;
54428;SDS011;40337;52.978;6.310;2023-07-30T01:56:31;18.65;;;5.78;;
54428;SDS011;40337;52.978;6.310;2023-07-30T01:58:57;16.90;;;5.50;;
54428;SDS011;40337;52.978;6.310;2023-07-30T02:01:22;19.08;;;5.43;;
54428;SDS011;40337;52.978;6.310;2023-07-30T02:03:48;19.45;;;5.78;;
54428;SDS011;40337;52.978;6.310;2023-07-30T02:06:13;17.35;;;5.30;;
54428;SDS011;40337;52.978;6.310;2023-07-30T02:08:39;19.30;;;5.53;;
54428;SDS011;40337;52.978;6.310;2023-07-30T02:11:04;15.85;;;5.93;;
54428;SDS011;40337;52.978;6.310;2023-07-30T02:13:30;14.82;;;5.45;;
54428;SDS011;40337;52.978;6.310;2023-07-30T02:15:55;17.25;;;5.55;;
54428;SDS011;40337;52.978;6.310;2023-07-30T02:18:21;16.35;;;5.45;;
54428;SDS011;40337;52.978;6.310;2023-07-30T02:20:46;18.67;;;5.65;;
54428;SDS011;40337;52.978;6.310;2023-07-30T02:23:13;19.00;;;5.55;;
54428;SDS011;40337;52.978;6.310;2023-07-30T02:25:41;21.98;;;6.30;;
54428;SDS011;40337;52.978;6.310;2023-07-30T02:28:06;19.88;;;6.00;;
54428;SDS011;40337;52.978;6.310;2023-07-30T02:30:33;17.02;;;5.43;;
54428;SDS011;40337;52.978;6.310;2023-07-30T02:32:59;18.60;;;5.97;;
54428;SDS011;40337;52.978;6.310;2023-07-30T02:35:24;14.30;;;4.93;;
54428;SDS011;40337;52.978;6.310;2023-07-30T02:37:50;16.83;;;5.45;;
54428;SDS011;40337;52.978;6.310;2023-07-30T02:40:15;16.50;;;5.55;;
54428;SDS011;40337;52.978;6.310;2023-07-30T02:42:41;14.77;;;5.07;;
54428;SDS011;40337;52.978;6.310;2023-07-30T02:45:06;16.48;;;6.10;;
54428;SDS011;40337;52.978;6.310;2023-07-30T02:47:32;16.40;;;5.25;;
54428;SDS011;40337;52.978;6.310;2023-07-30T02:49:58;14.88;;;5.00;;
54428;SDS011;40337;52.978;6.310;2023-07-30T02:52:23;14.55;;;5.00;;
54428;SDS011;40337;52.978;6.310;2023-07-30T02:54:49;15.30;;;5.35;;
54428;SDS011;40337;52.978;6.310;2023-07-30T02:57:14;17.30;;;5.25;;
54428;SDS011;40337;52.978;6.310;2023-07-30T02:59:40;16.30;;;5.13;;
54428;SDS011;40337;52.978;6.310;2023-07-30T03:02:05;14.88;;;5.28;;
54428;SDS011;40337;52.978;6.310;2023-07-30T03:04:31;15.77;;;4.90;;
54428;SDS011;40337;52.978;6.310;2023-07-30T03:06:57;14.77;;;5.25;;
54428;SDS011;40337;52.978;6.310;2023-07-30T03:09:22;16.88;;;5.20;;
54428;SDS011;40337;52.978;6.310;2023-07-30T03:11:51;14.02;;;4.80;;
54428;SDS011;40337;52.978;6.310;2023-07-30T03:14:16;16.33;;;5.45;;
54428;SDS011;40337;52.978;6.310;2023-07-30T03:16:45;16.25;;;5.10;;
54428;SDS011;40337;52.978;6.310;2023-07-30T03:19:11;15.38;;;5.10;;
54428;SDS011;40337;52.978;6.310;2023-07-30T03:21:37;16.75;;;5.72;;
54428;SDS011;40337;52.978;6.310;2023-07-30T03:24:02;15.18;;;5.05;;
54428;SDS011;40337;52.978;6.310;2023-07-30T03:26:28;16.58;;;5.35;;
54428;SDS011;40337;52.978;6.310;2023-07-30T03:28:54;17.63;;;5.10;;
54428;SDS011;40337;52.978;6.310;2023-07-30T03:31:19;19.38;;;5.25;;
54428;SDS011;40337;52.978;6.310;2023-07-30T03:33:45;13.27;;;5.00;;
54428;SDS011;40337;52.978;6.310;2023-07-30T03:36:11;14.90;;;5.10;;
54428;SDS011;40337;52.978;6.310;2023-07-30T03:38:38;17.75;;;5.30;;
54428;SDS011;40337;52.978;6.310;2023-07-30T03:41:04;16.95;;;5.22;;
54428;SDS011;40337;52.978;6.310;2023-07-30T03:43:31;18.38;;;5.13;;
54428;SDS011;40337;52.978;6.310;2023-07-30T03:45:57;16.63;;;5.25;;
54428;SDS011;40337;52.978;6.310;2023-07-30T03:48:22;15.45;;;5.15;;
54428;SDS011;40337;52.978;6.310;2023-07-30T03:50:48;19.70;;;5.57;;
54428;SDS011;40337;52.978;6.310;2023-07-30T03:53:13;16.35;;;5.03;;
54428;SDS011;40337;52.978;6.310;2023-07-30T03:55:40;18.33;;;5.45;;
54428;SDS011;40337;52.978;6.310;2023-07-30T03:58:05;21.58;;;6.15;;
54428;SDS011;40337;52.978;6.310;2023-07-30T04:00:31;17.65;;;5.50;;
54428;SDS011;40337;52.978;6.310;2023-07-30T04:02:56;15.52;;;5.53;;
54428;SDS011;40337;52.978;6.310;2023-07-30T04:05:22;16.25;;;5.18;;
54428;SDS011;40337;52.978;6.310;2023-07-30T04:07:47;15.20;;;4.80;;
54428;SDS011;40337;52.978;6.310;2023-07-30T04:10:13;19.63;;;5.65;;
54428;SDS011;40337;52.978;6.310;2023-07-30T04:12:38;19.65;;;4.95;;
54428;SDS011;40337;52.978;6.310;2023-07-30T04:15:04;16.65;;;4.82;;
54428;SDS011;40337;52.978;6.310;2023-07-30T04:17:30;16.80;;;5.20;;
54428;SDS011;40337;52.978;6.310;2023-07-30T04:19:56;18.73;;;5.47;;
54428;SDS011;40337;52.978;6.310;2023-07-30T04:22:21;15.02;;;5.00;;
54428;SDS011;40337;52.978;6.310;2023-07-30T04:24:47;17.13;;;5.10;;
54428;SDS011;40337;52.978;6.310;2023-07-30T04:27:13;14.40;;;5.05;;
54428;SDS011;40337;52.978;6.310;2023-07-30T04:29:39;16.42;;;5.10;;
54428;SDS011;40337;52.978;6.310;2023-07-30T04:32:05;20.50;;;6.25;;
54428;SDS011;40337;52.978;6.310;2023-07-30T04:34:31;16.30;;;5.40;;
54428;SDS011;40337;52.978;6.310;2023-07-30T04:36:56;20.35;;;5.50;;
54428;SDS011;40337;52.978;6.310;2023-07-30T04:39:22;15.60;;;5.32;;
54428;SDS011;40337;52.978;6.310;2023-07-30T04:41:48;14.13;;;5.20;;
54428;SDS011;40337;52.978;6.310;2023-07-30T04:44:13;18.70;;;5.57;;
54428;SDS011;40337;52.978;6.310;2023-07-30T04:46:39;15.13;;;5.47;;
54428;SDS011;40337;52.978;6.310;2023-07-30T04:49:04;18.38;;;5.05;;
54428;SDS011;40337;52.978;6.310;2023-07-30T04:51:30;12.75;;;4.95;;
54428;SDS011;40337;52.978;6.310;2023-07-30T04:53:55;14.50;;;4.60;;
54428;SDS011;40337;52.978;6.310;2023-07-30T04:56:21;15.27;;;4.72;;
54428;SDS011;40337;52.978;6.310;2023-07-30T04:58:47;14.60;;;4.95;;
54428;SDS011;40337;52.978;6.310;2023-07-30T05:01:12;15.80;;;4.60;;
54428;SDS011;40337;52.978;6.310;2023-07-30T05:03:38;15.32;;;5.40;;
54428;SDS011;40337;52.978;6.310;2023-07-30T05:06:03;15.10;;;4.72;;
54428;SDS011;40337;52.978;6.310;2023-07-30T05:08:30;15.73;;;5.18;;
54428;SDS011;40337;52.978;6.310;2023-07-30T05:10:55;16.23;;;5.30;;
54428;SDS011;40337;52.978;6.310;2023-07-30T05:13:21;14.35;;;4.97;;
54428;SDS011;40337;52.978;6.310;2023-07-30T05:15:46;17.30;;;5.20;;
54428;SDS011;40337;52.978;6.310;2023-07-30T05:18:12;16.38;;;5.30;;
54428;SDS011;40337;52.978;6.310;2023-07-30T05:20:38;19.60;;;5.63;;
54428;SDS011;40337;52.978;6.310;2023-07-30T05:23:04;20.20;;;5.40;;
54428;SDS011;40337;52.978;6.310;2023-07-30T05:25:31;15.43;;;5.35;;
54428;SDS011;40337;52.978;6.310;2023-07-30T05:27:57;18.92;;;5.82;;
54428;SDS011;40337;52.978;6.310;2023-07-30T05:30:23;18.20;;;5.20;;
54428;SDS011;40337;52.978;6.310;2023-07-30T05:32:48;14.05;;;5.15;;
54428;SDS011;40337;52.978;6.310;2023-07-30T05:35:14;16.67;;;5.45;;
54428;SDS011;40337;52.978;6.310;2023-07-30T05:37:39;17.00;;;5.13;;
54428;SDS011;40337;52.978;6.310;2023-07-30T05:40:05;19.83;;;5.45;;
54428;SDS011;40337;52.978;6.310;2023-07-30T05:42:32;17.35;;;5.60;;
54428;SDS011;40337;52.978;6.310;2023-07-30T05:44:57;16.10;;;4.90;;
54428;SDS011;40337;52.978;6.310;2023-07-30T05:47:23;13.27;;;4.90;;
54428;SDS011;40337;52.978;6.310;2023-07-30T05:49:48;13.68;;;4.97;;
54428;SDS011;40337;52.978;6.310;2023-07-30T05:52:14;15.95;;;4.90;;
54428;SDS011;40337;52.978;6.310;2023-07-30T05:54:39;13.90;;;4.82;;
54428;SDS011;40337;52.978;6.310;2023-07-30T05:57:05;17.30;;;5.38;;
54428;SDS011;40337;52.978;6.310;2023-07-30T05:59:30;14.65;;;4.50;;
54428;SDS011;40337;52.978;6.310;2023-07-30T06:01:56;15.80;;;5.05;;
54428;SDS011;40337;52.978;6.310;2023-07-30T06:04:26;16.38;;;5.03;;
54428;SDS011;40337;52.978;6.310;2023-07-30T06:06:51;14.63;;;4.93;;
54428;SDS011;40337;52.978;6.310;2023-07-30T06:09:17;16.50;;;4.88;;
54428;SDS011;40337;52.978;6.310;2023-07-30T06:11:42;17.92;;;5.20;;
54428;SDS011;40337;52.978;6.310;2023-07-30T06:14:08;14.85;;;4.82;;
54428;SDS011;40337;52.978;6.310;2023-07-30T06:16:33;17.95;;;4.82;;
54428;SDS011;40337;52.978;6.310;2023-07-30T06:18:59;16.08;;;4.88;;
54428;SDS011;40337;52.978;6.310;2023-07-30T06:21:25;15.43;;;4.28;;
54428;SDS011;40337;52.978;6.310;2023-07-30T06:23:50;16.50;;;4.88;;
54428;SDS011;40337;52.978;6.310;2023-07-30T06:26:16;15.90;;;4.78;;
54428;SDS011;40337;52.978;6.310;2023-07-30T06:28:41;18.17;;;5.32;;
54428;SDS011;40337;52.978;6.310;2023-07-30T06:31:07;15.43;;;4.65;;
54428;SDS011;40337;52.978;6.310;2023-07-30T06:33:32;14.75;;;4.85;;
54428;SDS011;40337;52.978;6.310;2023-07-30T06:35:58;15.60;;;4.80;;
54428;SDS011;40337;52.978;6.310;2023-07-30T06:38:24;15.30;;;4.60;;
54428;SDS011;40337;52.978;6.310;2023-07-30T06:40:49;22.23;;;5.07;;
54428;SDS011;40337;52.978;6.310;2023-07-30T06:43:15;14.93;;;4.30;;
54428;SDS011;40337;52.978;6.310;2023-07-30T06:45:40;13.55;;;4.57;;
54428;SDS011;40337;52.978;6.310;2023-07-30T06:48:06;14.85;;;4.32;;
54428;SDS011;40337;52.978;6.310;2023-07-30T06:50:31;19.65;;;4.40;;
54428;SDS011;40337;52.978;6.310;2023-07-30T06:52:57;14.45;;;4.65;;
54428;SDS011;40337;52.978;6.310;2023-07-30T06:55:22;18.70;;;3.78;;
54428;SDS011;40337;52.978;6.310;2023-07-30T06:57:48;12.88;;;4.30;;
54428;SDS011;40337;52.978;6.310;2023-07-30T07:00:13;13.50;;;4.22;;
54428;SDS011;40337;52.978;6.310;2023-07-30T07:02:46;14.55;;;4.07;;
54428;SDS011;40337;52.978;6.310;2023-07-30T07:05:12;13.57;;;3.55;;
54428;SDS011;40337;52.978;6.310;2023-07-30T07:07:37;13.35;;;4.13;;
54428;SDS011;40337;52.978;6.310;2023-07-30T07:10:03;11.95;;;3.72;;
54428;SDS011;40337;52.978;6.310;2023-07-30T07:12:29;14.48;;;3.47;;
54428;SDS011;40337;52.978;6.310;2023-07-30T07:14:54;9.48;;;3.40;;
54428;SDS011;40337;52.978;6.310;2023-07-30T07:17:23;11.98;;;3.47;;
54428;SDS011;40337;52.978;6.310;2023-07-30T07:19:49;12.07;;;3.08;;
54428;SDS011;40337;52.978;6.310;2023-07-30T07:22:15;12.45;;;3.22;;
54428;SDS011;40337;52.978;6.310;2023-07-30T07:24:42;12.43;;;3.30;;
54428;SDS011;40337;52.978;6.310;2023-07-30T07:27:09;12.15;;;3.33;;
54428;SDS011;40337;52.978;6.310;2023-07-30T07:29:34;10.20;;;2.88;;
54428;SDS011;40337;52.978;6.310;2023-07-30T07:32:00;10.40;;;3.00;;
54428;SDS011;40337;52.978;6.310;2023-07-30T07:34:26;8.90;;;2.90;;
54428;SDS011;40337;52.978;6.310;2023-07-30T07:36:51;9.80;;;3.05;;
54428;SDS011;40337;52.978;6.310;2023-07-30T07:39:17;8.98;;;3.13;;
54428;SDS011;40337;52.978;6.310;2023-07-30T07:41:43;10.93;;;2.70;;
54428;SDS011;40337;52.978;6.310;2023-07-30T07:44:08;12.05;;;3.00;;
54428;SDS011;40337;52.978;6.310;2023-07-30T07:46:34;12.60;;;3.40;;
54428;SDS011;40337;52.978;6.310;2023-07-30T07:49:00;9.98;;;2.92;;
54428;SDS011;40337;52.978;6.310;2023-07-30T07:51:25;10.40;;;2.70;;
54428;SDS011;40337;52.978;6.310;2023-07-30T07:53:51;9.77;;;2.80;;
54428;SDS011;40337;52.978;6.310;2023-07-30T07:56:17;10.55;;;2.60;;
54428;SDS011;40337;52.978;6.310;2023-07-30T07:58:42;9.00;;;2.72;;
54428;SDS011;40337;52.978;6.310;2023-07-30T08:01:08;8.35;;;2.20;;
54428;SDS011;40337;52.978;6.310;2023-07-30T08:03:34;6.75;;;2.20;;
54428;SDS011;40337;52.978;6.310;2023-07-30T08:05:59;5.72;;;1.90;;
54428;SDS011;40337;52.978;6.310;2023-07-30T08:08:26;7.53;;;2.10;;
54428;SDS011;40337;52.978;6.310;2023-07-30T08:10:51;6.70;;;2.05;;
54428;SDS011;40337;52.978;6.310;2023-07-30T08:13:17;6.13;;;2.08;;
54428;SDS011;40337;52.978;6.310;2023-07-30T08:15:43;9.77;;;2.47;;
54428;SDS011;40337;52.978;6.310;2023-07-30T08:18:09;9.90;;;2.33;;
54428;SDS011;40337;52.978;6.310;2023-07-30T08:20:34;6.45;;;1.80;;
54428;SDS011;40337;52.978;6.310;2023-07-30T08:23:00;6.40;;;2.20;;
54428;SDS011;40337;52.978;6.310;2023-07-30T08:25:26;8.65;;;2.40;;
54428;SDS011;40337;52.978;6.310;2023-07-30T08:27:51;6.47;;;2.20;;
54428;SDS011;40337;52.978;6.310;2023-07-30T08:30:17;6.68;;;2.30;;
54428;SDS011;40337;52.978;6.310;2023-07-30T08:32:42;7.97;;;2.03;;
54428;SDS011;40337;52.978;6.310;2023-07-30T08:35:09;8.20;;;2.17;;
54428;SDS011;40337;52.978;6.310;2023-07-30T08:37:36;9.70;;;2.50;;
54428;SDS011;40337;52.978;6.310;2023-07-30T08:40:02;5.20;;;2.25;;
54428;SDS011;40337;52.978;6.310;2023-07-30T08:42:28;7.28;;;2.20;;
54428;SDS011;40337;52.978;6.310;2023-07-30T08:44:54;11.57;;;2.83;;
54428;SDS011;40337;52.978;6.310;2023-07-30T08:47:19;11.45;;;2.40;;
54428;SDS011;40337;52.978;6.310;2023-07-30T08:49:45;7.97;;;2.38;;
54428;SDS011;40337;52.978;6.310;2023-07-30T08:52:11;7.25;;;2.22;;
54428;SDS011;40337;52.978;6.310;2023-07-30T08:54:37;10.73;;;3.03;;
54428;SDS011;40337;52.978;6.310;2023-07-30T08:57:04;10.38;;;2.83;;
54428;SDS011;40337;52.978;6.310;2023-07-30T08:59:35;8.80;;;2.60;;
54428;SDS011;40337;52.978;6.310;2023-07-30T09:02:07;9.73;;;2.38;;
54428;SDS011;40337;52.978;6.310;2023-07-30T09:04:47;9.27;;;2.53;;
54428;SDS011;40337;52.978;6.310;2023-07-30T09:07:14;8.77;;;2.63;;
54428;SDS011;40337;52.978;6.310;2023-07-30T09:09:40;10.90;;;2.80;;
54428;SDS011;40337;52.978;6.310;2023-07-30T09:12:14;10.98;;;2.80;;
54428;SDS011;40337;52.978;6.310;2023-07-30T09:14:39;7.15;;;2.10;;
54428;SDS011;40337;52.978;6.310;2023-07-30T09:17:05;8.75;;;2.67;;
54428;SDS011;40337;52.978;6.310;2023-07-30T09:19:35;4.57;;;1.70;;
54428;SDS011;40337;52.978;6.310;2023-07-30T09:22:04;4.60;;;1.42;;
54428;SDS011;40337;52.978;6.310;2023-07-30T09:24:30;5.88;;;1.80;;
54428;SDS011;40337;52.978;6.310;2023-07-30T09:26:57;6.70;;;2.13;;
54428;SDS011;40337;52.978;6.310;2023-07-30T09:29:27;8.32;;;2.08;;
54428;SDS011;40337;52.978;6.310;2023-07-30T09:31:53;5.82;;;1.60;;
54428;SDS011;40337;52.978;6.310;2023-07-30T09:34:20;5.25;;;1.70;;
54428;SDS011;40337;52.978;6.310;2023-07-30T09:36:47;5.18;;;1.83;;
54428;SDS011;40337;52.978;6.310;2023-07-30T09:39:16;5.20;;;1.52;;
54428;SDS011;40337;52.978;6.310;2023-07-30T09:41:49;6.25;;;1.80;;
54428;SDS011;40337;52.978;6.310;2023-07-30T09:44:17;4.85;;;1.60;;
54428;SDS011;40337;52.978;6.310;2023-07-30T09:46:44;6.50;;;1.92;;
54428;SDS011;40337;52.978;6.310;2023-07-30T09:49:10;6.43;;;1.70;;
54428;SDS011;40337;52.978;6.310;2023-07-30T09:51:37;5.95;;;1.67;;
54428;SDS011;40337;52.978;6.310;2023-07-30T09:54:05;6.43;;;1.95;;
54428;SDS011;40337;52.978;6.310;2023-07-30T09:56:32;6.13;;;2.20;;
54428;SDS011;40337;52.978;6.310;2023-07-30T09:58:57;6.40;;;2.30;;
54428;SDS011;40337;52.978;6.310;2023-07-30T10:01:23;5.43;;;1.77;;
54428;SDS011;40337;52.978;6.310;2023-07-30T10:03:50;6.43;;;2.33;;
54428;SDS011;40337;52.978;6.310;2023-07-30T10:06:17;6.95;;;2.13;;
54428;SDS011;40337;52.978;6.310;2023-07-30T10:08:43;6.00;;;2.10;;
54428;SDS011;40337;52.978;6.310;2023-07-30T10:11:10;5.82;;;1.70;;
54428;SDS011;40337;52.978;6.310;2023-07-30T10:13:37;8.90;;;2.60;;
54428;SDS011;40337;52.978;6.310;2023-07-30T10:16:09;5.57;;;1.90;;
54428;SDS011;40337;52.978;6.310;2023-07-30T10:18:39;6.28;;;2.15;;
54428;SDS011;40337;52.978;6.310;2023-07-30T10:21:10;5.55;;;2.00;;
54428;SDS011;40337;52.978;6.310;2023-07-30T10:23:47;7.93;;;2.30;;
54428;SDS011;40337;52.978;6.310;2023-07-30T10:26:26;8.73;;;2.30;;
54428;SDS011;40337;52.978;6.310;2023-07-30T10:31:40;6.93;;;2.30;;
54428;SDS011;40337;52.978;6.310;2023-07-30T10:34:07;9.93;;;2.42;;
54428;SDS011;40337;52.978;6.310;2023-07-30T10:36:40;8.05;;;2.05;;
54428;SDS011;40337;52.978;6.310;2023-07-30T10:39:18;7.53;;;2.25;;
54428;SDS011;40337;52.978;6.310;2023-07-30T10:41:46;6.13;;;2.05;;
54428;SDS011;40337;52.978;6.310;2023-07-30T10:44:32;6.82;;;2.05;;
54428;SDS011;40337;52.978;6.310;2023-07-30T10:46:59;7.20;;;1.90;;
54428;SDS011;40337;52.978;6.310;2023-07-30T10:49:26;8.05;;;2.00;;
54428;SDS011;40337;52.978;6.310;2023-07-30T10:51:53;7.25;;;1.85;;
54428;SDS011;40337;52.978;6.310;2023-07-30T10:54:19;6.68;;;1.92;;
54428;SDS011;40337;52.978;6.310;2023-07-30T10:56:46;6.13;;;2.00;;
54428;SDS011;40337;52.978;6.310;2023-07-30T10:59:12;6.60;;;2.13;;
54428;SDS011;40337;52.978;6.310;2023-07-30T11:01:39;5.95;;;2.00;;
54428;SDS011;40337;52.978;6.310;2023-07-30T11:04:09;5.05;;;1.90;;
54428;SDS011;40337;52.978;6.310;2023-07-30T11:06:44;7.13;;;2.00;;
54428;SDS011;40337;52.978;6.310;2023-07-30T11:09:17;7.30;;;2.03;;
54428;SDS011;40337;52.978;6.310;2023-07-30T11:11:48;7.50;;;1.93;;
54428;SDS011;40337;52.978;6.310;2023-07-30T11:14:18;4.93;;;1.65;;
54428;SDS011;40337;52.978;6.310;2023-07-30T11:16:49;6.93;;;2.03;;
54428;SDS011;40337;52.978;6.310;2023-07-30T11:19:15;5.85;;;1.80;;
54428;SDS011;40337;52.978;6.310;2023-07-30T11:21:50;8.82;;;2.15;;
54428;SDS011;40337;52.978;6.310;2023-07-30T11:24:17;7.53;;;2.08;;
54428;SDS011;40337;52.978;6.310;2023-07-30T11:26:43;4.57;;;1.60;;
54428;SDS011;40337;52.978;6.310;2023-07-30T11:29:18;6.32;;;1.80;;
54428;SDS011;40337;52.978;6.310;2023-07-30T11:31:45;6.20;;;1.70;;
54428;SDS011;40337;52.978;6.310;2023-07-30T11:34:12;5.40;;;1.67;;
54428;SDS011;40337;52.978;6.310;2023-07-30T11:36:39;7.15;;;2.10;;
54428;SDS011;40337;52.978;6.310;2023-07-30T11:39:06;7.00;;;1.98;;
54428;SDS011;40337;52.978;6.310;2023-07-30T11:41:32;6.10;;;1.75;;
54428;SDS011;40337;52.978;6.310;2023-07-30T11:43:58;7.15;;;1.75;;
54428;SDS011;40337;52.978;6.310;2023-07-30T11:46:24;6.72;;;1.70;;
54428;SDS011;40337;52.978;6.310;2023-07-30T11:48:51;6.72;;;1.90;;
54428;SDS011;40337;52.978;6.310;2023-07-30T11:51:26;8.45;;;1.90;;
54428;SDS011;40337;52.978;6.310;2023-07-30T11:53:56;7.35;;;2.00;;
54428;SDS011;40337;52.978;6.310;2023-07-30T11:58:57;5.75;;;1.92;;
54428;SDS011;40337;52.978;6.310;2023-07-30T12:01:25;8.30;;;2.00;;
54428;SDS011;40337;52.978;6.310;2023-07-30T12:03:54;7.57;;;2.15;;
54428;SDS011;40337;52.978;6.310;2023-07-30T12:06:23;5.95;;;2.40;;
54428;SDS011;40337;52.978;6.310;2023-07-30T12:08:49;4.28;;;1.60;;
54428;SDS011;40337;52.978;6.310;2023-07-30T12:11:17;7.00;;;1.85;;
54428;SDS011;40337;52.978;6.310;2023-07-30T12:13:46;5.25;;;1.63;;
54428;SDS011;40337;52.978;6.310;2023-07-30T12:16:12;5.00;;;1.45;;
54428;SDS011;40337;52.978;6.310;2023-07-30T12:18:39;4.93;;;1.83;;
54428;SDS011;40337;52.978;6.310;2023-07-30T12:21:05;6.85;;;1.83;;
54428;SDS011;40337;52.978;6.310;2023-07-30T12:23:32;6.97;;;1.88;;
54428;SDS011;40337;52.978;6.310;2023-07-30T12:25:59;6.82;;;2.00;;
54428;SDS011;40337;52.978;6.310;2023-07-30T12:28:25;8.18;;;2.47;;
54428;SDS011;40337;52.978;6.310;2023-07-30T12:30:50;8.55;;;2.13;;
54428;SDS011;40337;52.978;6.310;2023-07-30T12:33:16;7.03;;;2.40;;
54428;SDS011;40337;52.978;6.310;2023-07-30T12:35:42;6.20;;;2.38;;
54428;SDS011;40337;52.978;6.310;2023-07-30T12:38:07;6.93;;;2.08;;
54428;SDS011;40337;52.978;6.310;2023-07-30T12:40:33;11.20;;;2.53;;
54428;SDS011;40337;52.978;6.310;2023-07-30T12:42:59;9.52;;;2.08;;
54428;SDS011;40337;52.978;6.310;2023-07-30T12:45:26;7.88;;;2.10;;
54428;SDS011;40337;52.978;6.310;2023-07-30T12:47:52;8.63;;;2.00;;
54428;SDS011;40337;52.978;6.310;2023-07-30T12:50:18;7.15;;;2.30;;
54428;SDS011;40337;52.978;6.310;2023-07-30T12:52:43;5.82;;;2.00;;
54428;SDS011;40337;52.978;6.310;2023-07-30T12:55:09;6.65;;;2.10;;
54428;SDS011;40337;52.978;6.310;2023-07-30T12:57:35;7.25;;;2.20;;
54428;SDS011;40337;52.978;6.310;2023-07-30T13:00:01;6.70;;;2.03;;
54428;SDS011;40337;52.978;6.310;2023-07-30T13:02:28;6.10;;;1.80;;
54428;SDS011;40337;52.978;6.310;2023-07-30T13:04:54;6.15;;;1.70;;
54428;SDS011;40337;52.978;6.310;2023-07-30T13:07:19;7.88;;;1.70;;
54428;SDS011;40337;52.978;6.310;2023-07-30T13:09:45;5.20;;;1.80;;
54428;SDS011;40337;52.978;6.310;2023-07-30T13:12:12;7.55;;;1.70;;
54428;SDS011;40337;52.978;6.310;2023-07-30T13:14:38;5.82;;;1.80;;
54428;SDS011;40337;52.978;6.310;2023-07-30T13:17:03;8.70;;;2.08;;
54428;SDS011;40337;52.978;6.310;2023-07-30T13:19:29;8.57;;;2.17;;
54428;SDS011;40337;52.978;6.310;2023-07-30T13:21:57;6.68;;;2.15;;
54428;SDS011;40337;52.978;6.310;2023-07-30T13:24:22;5.03;;;1.75;;
54428;SDS011;40337;52.978;6.310;2023-07-30T13:26:48;4.93;;;1.90;;
54428;SDS011;40337;52.978;6.310;2023-07-30T13:29:13;7.38;;;1.80;;
54428;SDS011;40337;52.978;6.310;2023-07-30T13:31:39;8.48;;;2.25;;
54428;SDS011;40337;52.978;6.310;2023-07-30T13:34:04;8.90;;;2.25;;
54428;SDS011;40337;52.978;6.310;2023-07-30T13:36:30;6.13;;;1.80;;
54428;SDS011;40337;52.978;6.310;2023-07-30T13:38:56;6.70;;;2.05;;
54428;SDS011;40337;52.978;6.310;2023-07-30T13:41:21;6.88;;;1.95;;
54428;SDS011;40337;52.978;6.310;2023-07-30T13:43:47;6.38;;;2.00;;
54428;SDS011;40337;52.978;6.310;2023-07-30T13:46:12;5.15;;;1.40;;
54428;SDS011;40337;52.978;6.310;2023-07-30T13:48:38;5.97;;;1.95;;
54428;SDS011;40337;52.978;6.310;2023-07-30T13:51:03;5.80;;;1.80;;
54428;SDS011;40337;52.978;6.310;2023-07-30T13:53:29;8.68;;;2.05;;
54428;SDS011;40337;52.978;6.310;2023-07-30T13:55:54;8.10;;;1.80;;
54428;SDS011;40337;52.978;6.310;2023-07-30T13:58:20;5.00;;;1.30;;
54428;SDS011;40337;52.978;6.310;2023-07-30T14:00:45;5.30;;;1.65;;
54428;SDS011;40337;52.978;6.310;2023-07-30T14:03:11;4.88;;;1.63;;
54428;SDS011;40337;52.978;6.310;2023-07-30T14:05:38;6.35;;;1.80;;
54428;SDS011;40337;52.978;6.310;2023-07-30T14:08:04;6.60;;;1.73;;
54428;SDS011;40337;52.978;6.310;2023-07-30T14:10:29;6.53;;;2.05;;
54428;SDS011;40337;52.978;6.310;2023-07-30T14:12:55;5.30;;;1.67;;
54428;SDS011;40337;52.978;6.310;2023-07-30T14:15:20;8.35;;;1.80;;
54428;SDS011;40337;52.978;6.310;2023-07-30T14:17:46;6.60;;;1.77;;
54428;SDS011;40337;52.978;6.310;2023-07-30T14:20:11;6.00;;;1.83;;
54428;SDS011;40337;52.978;6.310;2023-07-30T14:22:37;3.97;;;1.70;;
54428;SDS011;40337;52.978;6.310;2023-07-30T14:25:02;5.65;;;1.40;;
54428;SDS011;40337;52.978;6.310;2023-07-30T14:27:28;6.55;;;1.90;;
54428;SDS011;40337;52.978;6.310;2023-07-30T14:29:54;6.75;;;1.63;;
54428;SDS011;40337;52.978;6.310;2023-07-30T14:32:20;5.78;;;1.60;;
54428;SDS011;40337;52.978;6.310;2023-07-30T14:34:46;4.13;;;1.40;;
54428;SDS011;40337;52.978;6.310;2023-07-30T14:37:11;3.45;;;1.10;;
54428;SDS011;40337;52.978;6.310;2023-07-30T14:39:37;4.68;;;1.35;;
54428;SDS011;40337;52.978;6.310;2023-07-30T14:42:03;4.75;;;1.30;;